메인 페이지
METAR-TAF:

METAR-TAF

공항 :

Slidell Airport

Slidell, 루이지애나, 미국

위도: 30-20-35N, 경도: 089-49-19W, 고도: 9m

현재 날씨관측

예보는 37분 전, 14:53시(UTC)에 발표되었습니다.
3kt
온도 28°C
습도 66%
기압 1019 hPa
시정: 16.1km
고도 6500ft 상공 구름 조금

METAR: KASD 201453Z AUTO 17003KT 10SM FEW065 28/21 A3008 RMK AO2 SLP185 T02780211 51009

시각: 10:30 (15:30 UTC)

예보

예보는 3 시간 33분 전, 11:57시(UTC)에 발표되었습니다.
예보 대상 시간: 20일 12시부터 21일 12시까지 (UTC)
kt
시정: 10km
고도 1700ft 상공 구름 조금
20일 1900시부터 (UTC)
남동5kt
시정: 10km
고도 4500ft 상공 구름 조금, 적란운.
고도 25000ft 상공 구름 보통
시계 내 뇌우
21일 0200시부터 (UTC)
kt
시정: 10km
고도 3000ft 상공 구름 조금
고도 20000ft 상공 구름 보통

TAF: KASD 201157Z 2012/2112 00000KT P6SM FEW017 FM201900 14005KT P6SM VCTS FEW045CB SCT250 FM210200 00000KT P6SM FEW030 SCT200

4,000개 이상의 공항 관측 자료 및 예보 (METAR 및 TAF 보고).

지도상에서 검색 가능한 기상관측소가 노란 점과 빨간 점으로 표시되어 있습니다.

기상관측소 명을 보려면 표시 위로 마우스를 이동하세요.

날씨 관측과 예보를 보려면 클릭하세요.

지도 변경 : 확대하려면 엑스 표시가 있는 녹색 버튼, 축소하려면 빼기 표시가 있는 녹색 버튼, 다음 페이지의 지도를 보려면 녹색 화살표를 클릭하세요.


METAR-TAF: